Time;durP1;ratioP1;P1;durP2;ratioP2;P2;SDS_P1;SDS_P2;PMS_P1;PMS_P2;Temp;Humidity;BMP_temperature;BMP_pressure;BME280_temperature;BME280_humidity;BME280_pressure;Samples;Min_cycle;Max_cycle;Signal;HPM_P1;HPM_P2
2021/12/14 00:00:19;;;;;;;8.83;4.70;;;;;;;0.81;100.00;60896.31;5114407;28;20506;-77
2021/12/14 00:02:49;;;;;;;6.07;4.50;;;;;;;0.89;100.00;60904.28;5114068;28;20457;-76
2021/12/14 00:05:25;;;;;;;7.37;4.27;;;;;;;0.88;100.00;60898.22;5114282;28;20957;-76
2021/12/14 00:07:56;;;;;;;7.87;5.00;;;;;;;-0.33;100.00;60771.06;5114659;28;20460;-77
2021/12/14 00:10:50;;;;;;;6.70;4.57;;;;;;;0.97;100.00;60910.28;5113873;28;20445;-78
2021/12/14 00:13:31;;;;;;;9.50;4.70;;;;;;;-0.85;100.00;60719.03;5114552;28;20488;-77
2021/12/14 00:15:59;;;;;;;5.83;4.20;;;;;;;0.32;100.00;60839.38;5113276;28;20982;-79
2021/12/14 00:18:27;;;;;;;7.13;4.83;;;;;;;0.82;100.00;60889.88;5113786;28;20532;-76
2021/12/14 00:21:01;;;;;;;6.87;4.23;;;;;;;0.79;100.00;60891.69;5113698;28;20956;-79
2021/12/14 00:26:18;;;;;;;6.23;4.40;;;;;;;0.87;100.00;60897.16;5114635;28;20566;-74
2021/12/14 00:28:48;;;;;;;6.90;4.73;;;;;;;0.49;100.00;60857.94;5113570;28;20440;-75
2021/12/14 00:31:20;;;;;;;8.33;4.90;;;;;;;0.66;100.00;60872.91;5113582;28;20535;-81
2021/12/14 00:33:52;;;;;;;8.27;5.27;;;;;;;-0.39;100.00;60764.69;5113961;28;21026;-76
2021/12/14 00:36:43;;;;;;;7.90;4.97;;;;;;;0.91;100.00;60901.91;5099148;28;20484;-74
2021/12/14 00:39:12;;;;;;;7.03;4.70;;;;;;;0.81;100.00;60891.84;5116482;28;20429;-75
2021/12/14 00:41:42;;;;;;;7.20;4.53;;;;;;;-0.17;100.00;60785.50;5113654;28;20539;-75
2021/12/14 00:44:12;;;;;;;7.10;4.50;;;;;;;0.93;100.00;60903.53;5113077;28;20445;-75
2021/12/14 00:46:42;;;;;;;8.60;4.43;;;;;;;-0.24;100.00;60785.59;5113815;28;20445;-75
2021/12/14 00:49:14;;;;;;;6.80;4.80;;;;;;;0.85;100.00;60896.09;5113028;28;20484;-76
2021/12/14 00:51:45;;;;;;;7.60;5.00;;;;;;;0.72;100.00;60887.31;5112982;28;20494;-77
2021/12/14 00:54:18;;;;;;;7.20;4.50;;;;;;;-0.41;100.00;60757.56;5112908;28;20494;-75
2021/12/14 00:56:49;;;;;;;7.70;4.77;;;;;;;-0.45;100.00;60758.34;5113413;28;20450;-77
2021/12/14 00:59:20;;;;;;;6.17;4.23;;;;;;;-0.40;100.00;60764.16;5112657;28;20525;-76
2021/12/14 01:01:52;;;;;;;5.93;4.17;;;;;;;0.77;100.00;60887.06;5095137;28;20429;-77
2021/12/14 01:04:26;;;;;;;5.43;3.83;;;;;;;0.71;100.00;60878.75;5112735;28;20432;-76
2021/12/14 01:07:05;;;;;;;7.73;4.60;;;;;;;0.77;100.00;60887.06;5113564;28;20443;-74
2021/12/14 01:09:37;;;;;;;7.33;4.70;;;;;;;0.81;100.00;60894.34;5095159;28;20445;-77
2021/12/14 01:12:19;;;;;;;8.40;4.97;;;;;;;0.77;100.00;60892.63;5112636;28;20451;-76
2021/12/14 01:17:42;;;;;;;6.57;4.33;;;;;;;0.54;100.00;60865.75;5112748;28;20452;-77
2021/12/14 01:20:15;;;;;;;6.97;4.27;;;;;;;0.63;100.00;60877.25;5112612;28;21004;-75
2021/12/14 01:22:53;;;;;;;7.67;4.47;;;;;;;-0.70;100.00;60731.88;5113143;28;20437;-78
2021/12/14 01:25:24;;;;;;;7.73;3.97;;;;;;;0.12;100.00;60813.72;5112540;28;20437;-75
2021/12/14 01:27:56;;;;;;;8.80;5.13;;;;;;;-0.52;100.00;60751.47;5112453;28;20492;-77
2021/12/14 01:30:56;;;;;;;7.70;4.23;;;;;;;0.73;100.00;60880.31;5112896;28;20436;-77
2021/12/14 01:33:27;;;;;;;7.53;4.90;;;;;;;-0.77;100.00;60722.50;5111133;28;21044;-76
2021/12/14 01:35:57;;;;;;;6.83;4.30;;;;;;;0.73;100.00;60887.84;5112259;28;20452;-77
2021/12/14 01:38:45;;;;;;;7.37;4.87;;;;;;;0.72;100.00;60882.31;5111964;28;20824;-78
2021/12/14 01:41:22;;;;;;;6.20;3.83;;;;;;;-0.47;100.00;60754.25;5094706;28;20546;-75
2021/12/14 01:43:55;;;;;;;7.13;4.27;;;;;;;0.46;100.00;60857.25;5112568;28;20429;-76
2021/12/14 01:46:33;;;;;;;8.63;4.57;;;;;;;0.72;100.00;60884.81;5112479;28;20440;-77
2021/12/14 01:49:06;;;;;;;8.77;5.03;;;;;;;0.92;100.00;60907.47;5111789;28;20477;-76
2021/12/14 01:51:38;;;;;;;8.03;5.03;;;;;;;0.82;100.00;60892.91;5112202;28;20429;-76
2021/12/14 01:54:11;;;;;;;7.20;5.07;;;;;;;0.81;100.00;60891.84;5112420;28;21029;-76
2021/12/14 01:56:39;;;;;;;6.07;4.50;;;;;;;0.83;100.00;60893.97;5112249;28;20445;-76
2021/12/14 01:59:14;;;;;;;8.13;5.17;;;;;;;0.78;100.00;60891.19;5111883;28;20506;-76
2021/12/14 02:01:55;;;;;;;7.50;4.87;;;;;;;-0.05;100.00;60800.72;5111732;28;20862;-76
2021/12/14 02:04:26;;;;;;;8.90;5.27;;;;;;;0.53;100.00;60862.16;5111039;28;20455;-76
2021/12/14 02:06:58;;;;;;;6.97;4.87;;;;;;;0.78;100.00;60888.69;5112223;28;20490;-75
2021/12/14 02:09:29;;;;;;;6.67;4.80;;;;;;;0.79;100.00;60892.22;5111925;28;20863;-75
2021/12/14 02:12:10;;;;;;;7.57;4.67;;;;;;;0.72;100.00;60884.28;5112115;28;20568;-79
2021/12/14 02:14:53;;;;;;;7.63;5.03;;;;;;;0.37;100.00;60845.22;5109514;28;20694;-75
2021/12/14 02:17:24;;;;;;;8.17;5.10;;;;;;;0.26;100.00;60838.03;5112316;28;20865;-76
2021/12/14 02:19:52;;;;;;;8.10;4.63;;;;;;;0.62;100.00;60869.22;5111309;28;20457;-77
2021/12/14 02:22:21;;;;;;;7.53;4.23;;;;;;;0.68;100.00;60882.56;5111887;28;20498;-76
2021/12/14 02:25:01;;;;;;;6.67;4.83;;;;;;;-0.59;100.00;60743.53;5112356;28;20437;-78
2021/12/14 02:30:23;;;;;;;8.60;5.20;;;;;;;0.77;100.00;60890.13;5112046;28;20459;-75
2021/12/14 02:32:51;;;;;;;7.87;4.90;;;;;;;0.70;100.00;60882.16;5112104;28;20528;-77
2021/12/14 02:35:22;;;;;;;7.37;5.03;;;;;;;0.73;100.00;60883.38;5111716;28;20453;-79
2021/12/14 02:37:58;;;;;;;6.97;4.70;;;;;;;-0.27;100.00;60777.41;5111593;28;20445;-76
2021/12/14 02:40:53;;;;;;;5.53;4.30;;;;;;;0.66;100.00;60878.47;5111854;28;20440;-76
2021/12/14 02:43:24;;;;;;;10.73;5.50;;;;;;;0.60;100.00;60869.06;5111371;28;20439;-78
2021/12/14 02:46:02;;;;;;;9.23;5.57;;;;;;;-0.37;100.00;60759.31;5111729;28;20456;-77
2021/12/14 02:48:29;;;;;;;8.90;5.00;;;;;;;0.53;100.00;60859.13;5113441;28;20468;-79
2021/12/14 02:51:12;;;;;;;7.37;5.00;;;;;;;0.41;100.00;60846.41;5115191;28;20453;-76
2021/12/14 02:53:59;;;;;;;7.90;5.37;;;;;;;0.64;100.00;60878.31;5111272;28;21039;-77
2021/12/14 02:56:42;;;;;;;7.90;5.07;;;;;;;-0.22;100.00;60790.22;5093476;28;20437;-77
2021/12/14 02:59:17;;;;;;;7.77;5.07;;;;;;;0.51;100.00;60860.03;5110460;28;20448;-75
2021/12/14 03:01:47;;;;;;;6.07;4.00;;;;;;;0.53;100.00;60861.63;5111528;28;20796;-76
2021/12/14 03:04:14;;;;;;;7.90;4.67;;;;;;;0.49;100.00;60857.94;5111533;28;20444;-77
2021/12/14 03:07:02;;;;;;;7.50;5.07;;;;;;;0.34;100.00;60847.03;5110877;28;20441;-76
2021/12/14 03:09:41;;;;;;;7.37;4.97;;;;;;;0.41;100.00;60849.44;5110996;28;20840;-75
2021/12/14 03:12:16;;;;;;;6.83;4.67;;;;;;;0.37;100.00;60847.72;5111228;28;20437;-77
2021/12/14 03:14:50;;;;;;;7.83;4.90;;;;;;;-1.04;100.00;60696.94;5111908;28;20480;-75
2021/12/14 03:17:22;;;;;;;7.20;4.70;;;;;;;-0.58;100.00;60752.09;5111618;28;20951;-77
2021/12/14 03:22:46;;;;;;;13.93;5.00;;;;;;;0.42;100.00;60849.97;5110689;28;20436;-76
2021/12/14 03:25:19;;;;;;;8.80;5.57;;;;;;;0.45;100.00;60858.16;5111109;28;20428;-77
2021/12/14 03:27:48;;;;;;;7.13;4.83;;;;;;;-0.72;100.00;60717.78;5115097;28;20802;-75
2021/12/14 03:30:23;;;;;;;7.87;5.27;;;;;;;-0.67;100.00;60737.56;5115142;28;20453;-76
2021/12/14 03:32:52;;;;;;;9.97;5.13;;;;;;;0.23;100.00;60832.88;5115201;28;20432;-77
2021/12/14 03:35:20;;;;;;;7.63;5.27;;;;;;;0.51;100.00;60862.56;5096388;28;20579;-75
2021/12/14 03:38:03;;;;;;;7.93;5.47;;;;;;;-1.07;100.00;60683.78;5114387;28;20491;-75
2021/12/14 03:40:35;;;;;;;7.67;5.07;;;;;;;0.14;100.00;60820.31;5115513;28;20437;-77
2021/12/14 03:43:05;;;;;;;9.30;5.67;;;;;;;-1.12;100.00;60688.50;5096810;28;20445;-77
2021/12/14 03:48:27;;;;;;;6.80;3.97;;;;;;;0.52;100.00;60866.13;5113766;28;20468;-79
2021/12/14 03:50:55;;;;;;;7.90;4.97;;;;;;;0.46;100.00;60857.25;5114460;28;20466;-77
2021/12/14 03:53:27;;;;;;;10.27;5.50;;;;;;;-0.65;100.00;60737.16;5113912;28;20484;-78
2021/12/14 03:56:06;;;;;;;8.93;5.87;;;;;;;0.43;100.00;60851.56;5113956;28;20448;-76
2021/12/14 03:58:42;;;;;;;7.03;4.90;;;;;;;0.43;100.00;60856.56;5114193;28;20433;-77
2021/12/14 04:01:14;;;;;;;9.33;5.63;;;;;;;0.40;100.00;60850.91;5115148;28;20432;-77
2021/12/14 04:03:43;;;;;;;9.47;5.93;;;;;;;-0.80;100.00;60721.81;5114230;28;20868;-75
2021/12/14 04:06:14;;;;;;;9.27;5.53;;;;;;;0.34;100.00;60844.00;5114084;28;20468;-75
2021/12/14 04:08:43;;;;;;;8.90;5.73;;;;;;;0.28;100.00;60840.69;5113921;28;20445;-77
2021/12/14 04:11:15;;;;;;;9.93;6.23;;;;;;;0.34;100.00;60844.53;5114419;28;20448;-78
2021/12/14 04:13:49;;;;;;;11.17;6.43;;;;;;;0.34;100.00;60847.03;5114086;28;20468;-79
2021/12/14 04:16:22;;;;;;;12.13;7.03;;;;;;;0.42;100.00;60847.47;5114113;28;20433;-77
2021/12/14 04:18:55;;;;;;;11.07;6.77;;;;;;;-1.18;100.00;60681.59;5113816;28;20566;-75
2021/12/14 04:21:27;;;;;;;11.07;6.93;;;;;;;-1.25;100.00;60674.22;5113992;28;20445;-78
2021/12/14 04:23:56;;;;;;;9.97;6.50;;;;;;;0.33;100.00;60840.97;5113545;28;20660;-77
2021/12/14 04:26:33;;;;;;;11.30;6.17;;;;;;;-0.47;100.00;60751.75;5095832;28;20514;-75
2021/12/14 04:29:03;;;;;;;11.73;5.97;;;;;;;0.36;100.00;60844.16;5113830;28;20525;-76
2021/12/14 04:31:41;;;;;;;11.23;6.33;;;;;;;-0.55;100.00;60750.25;5113779;28;20441;-76
2021/12/14 04:34:08;;;;;;;12.33;7.53;;;;;;;-0.37;100.00;60769.31;5096304;28;20476;-77
2021/12/14 04:36:43;;;;;;;10.67;7.07;;;;;;;-0.74;100.00;60733.16;5113747;28;20506;-77
2021/12/14 04:39:32;;;;;;;13.20;7.73;;;;;;;0.49;100.00;60862.94;5113375;28;20491;-75
2021/12/14 04:53:43;;;;;;;12.70;7.50;;;;;;;0.50;100.00;60858.47;5114005;28;20841;-77
2021/12/14 04:56:19;;;;;;;14.80;7.23;;;;;;;0.45;100.00;60853.69;5111558;28;20472;-77
2021/12/14 04:58:54;;;;;;;12.87;7.63;;;;;;;-0.28;100.00;60781.88;5113107;28;20867;-78
2021/12/14 05:01:23;;;;;;;11.20;7.90;;;;;;;0.43;100.00;60854.06;5115002;28;20442;-76
2021/12/14 05:03:57;;;;;;;12.47;7.17;;;;;;;0.09;100.00;60815.53;5121686;28;20926;-77
2021/12/14 05:06:32;;;;;;;13.23;8.17;;;;;;;0.32;100.00;60831.88;5112966;28;20452;-76
2021/12/14 05:09:21;;;;;;;12.47;6.97;;;;;;;-1.07;100.00;60693.78;5113419;28;20441;-76
2021/12/14 05:11:59;;;;;;;15.40;7.93;;;;;;;0.33;100.00;60843.47;5113630;28;20537;-76
2021/12/14 05:14:35;;;;;;;15.30;7.93;;;;;;;-0.42;100.00;60757.03;5112713;28;21006;-76
2021/12/14 05:17:07;;;;;;;11.43;7.57;;;;;;;0.51;100.00;60865.06;5112406;28;20485;-78
2021/12/14 05:19:42;;;;;;;11.60;7.20;;;;;;;0.40;100.00;60853.41;5112805;28;20449;-77
2021/12/14 05:22:16;;;;;;;13.50;7.63;;;;;;;0.50;100.00;60859.00;5112576;28;20443;-77
2021/12/14 05:24:48;;;;;;;13.73;8.23;;;;;;;-0.99;100.00;60707.25;5112239;28;20503;-74
2021/12/14 05:27:23;;;;;;;13.73;7.93;;;;;;;0.53;100.00;60867.19;5112457;28;20441;-77
2021/12/14 05:29:53;;;;;;;11.70;7.03;;;;;;;0.37;100.00;60847.72;5113102;28;20926;-78
2021/12/14 05:32:21;;;;;;;14.10;8.07;;;;;;;0.37;100.00;60845.22;5094184;28;20535;-78
2021/12/14 05:34:52;;;;;;;17.60;7.93;;;;;;;0.45;100.00;60853.69;5111624;28;20986;-76
2021/12/14 05:37:23;;;;;;;13.43;7.27;;;;;;;0.47;100.00;60860.81;5094142;28;20977;-77
2021/12/14 05:39:57;;;;;;;14.07;8.00;;;;;;;-0.15;100.00;60790.13;5112285;28;20445;-76
2021/12/14 05:45:16;;;;;;;13.27;7.03;;;;;;;0.37;100.00;60842.69;5112659;28;20957;-76
2021/12/14 05:50:36;;;;;;;12.30;7.27;;;;;;;0.38;100.00;60846.28;5110991;28;20436;-74
2021/12/14 05:53:06;;;;;;;12.23;7.93;;;;;;;-0.64;100.00;60740.75;5093742;28;20447;-78
2021/12/14 05:55:47;;;;;;;18.70;8.23;;;;;;;0.38;100.00;60848.25;5111696;28;20487;-77
2021/12/14 05:58:20;;;;;;;13.37;8.43;;;;;;;0.49;100.00;60857.94;5111971;28;20437;-78
2021/12/14 06:00:55;;;;;;;13.57;8.43;;;;;;;0.42;100.00;60852.50;5113031;28;20476;-78
2021/12/14 06:03:27;;;;;;;15.57;8.83;;;;;;;-0.72;100.00;60732.78;5112641;28;20922;-77
2021/12/14 06:05:57;;;;;;;14.47;8.17;;;;;;;0.40;100.00;60850.91;5111871;28;20473;-76
2021/12/14 06:08:27;;;;;;;18.50;8.47;;;;;;;0.52;100.00;60861.13;5111987;28;20436;-76
2021/12/14 06:10:58;;;;;;;12.87;7.87;;;;;;;-0.81;100.00;60720.22;5111794;28;20506;-77
2021/12/14 06:13:36;;;;;;;16.50;9.27;;;;;;;-0.82;100.00;60721.69;5094208;28;20455;-77
2021/12/14 06:16:06;;;;;;;17.50;9.37;;;;;;;0.06;100.00;60819.34;5112459;28;20485;-77
2021/12/14 06:18:35;;;;;;;14.40;8.80;;;;;;;0.51;100.00;60860.03;5111621;28;20819;-76
2021/12/14 06:21:04;;;;;;;14.90;7.63;;;;;;;-0.07;100.00;60808.59;5111707;28;20444;-75
2021/12/14 06:23:32;;;;;;;14.00;8.17;;;;;;;-0.96;100.00;60707.91;5093325;28;20471;-78
2021/12/14 06:26:00;;;;;;;13.20;8.00;;;;;;;-0.33;100.00;60774.09;5111371;28;20486;-75
2021/12/14 06:28:29;;;;;;;17.67;8.90;;;;;;;-0.92;100.00;60709.66;5111685;28;20918;-74
2021/12/14 06:30:58;;;;;;;14.27;8.13;;;;;;;0.71;100.00;60878.75;5093726;28;20441;-76
2021/12/14 06:33:30;;;;;;;15.83;9.30;;;;;;;0.65;100.00;60874.88;5111625;28;20457;-76
2021/12/14 06:36:01;;;;;;;14.90;8.93;;;;;;;-0.55;100.00;60748.28;5112017;28;20545;-77
2021/12/14 06:38:32;;;;;;;15.70;8.77;;;;;;;0.55;100.00;60864.28;5111276;28;20894;-77
2021/12/14 06:41:07;;;;;;;15.40;9.20;;;;;;;-0.54;100.00;60748.81;5111604;28;20440;-77
2021/12/14 06:43:56;;;;;;;15.47;8.17;;;;;;;0.70;100.00;60885.22;5114682;28;20437;-75
2021/12/14 06:46:29;;;;;;;13.20;8.67;;;;;;;0.69;100.00;60879.13;5111443;28;20444;-75
2021/12/14 06:49:04;;;;;;;15.40;9.50;;;;;;;0.77;100.00;60885.09;5111074;28;20477;-76
2021/12/14 06:51:34;;;;;;;14.87;9.03;;;;;;;0.80;100.00;60895.28;5111891;28;20436;-76
2021/12/14 06:54:07;;;;;;;16.57;9.60;;;;;;;-0.21;100.00;60783.75;5111596;28;20946;-77
2021/12/14 06:56:36;;;;;;;16.33;8.63;;;;;;;0.85;100.00;60896.09;5111716;28;20814;-78
2021/12/14 06:59:07;;;;;;;14.83;8.63;;;;;;;0.78;100.00;60891.19;5093425;28;20456;-75
2021/12/14 07:01:38;;;;;;;16.07;9.73;;;;;;;0.73;100.00;60888.38;5114296;28;20436;-77
2021/12/14 07:04:16;;;;;;;13.23;8.43;;;;;;;0.44;100.00;60850.13;5115220;28;20445;-75
2021/12/14 07:06:50;;;;;;;15.80;7.57;;;;;;;0.68;100.00;60880.59;5115220;28;20441;-76
2021/12/14 07:09:21;;;;;;;15.77;8.70;;;;;;;-0.67;100.00;60737.56;5114942;28;20525;-77
2021/12/14 07:11:57;;;;;;;15.90;9.13;;;;;;;0.66;100.00;60878.47;5115958;28;20490;-76
2021/12/14 07:14:38;;;;;;;15.93;9.73;;;;;;;0.70;100.00;60885.22;5121475;28;20440;-73
2021/12/14 07:17:11;;;;;;;14.50;8.50;;;;;;;-0.43;100.00;60760.47;5117588;28;20539;-76
2021/12/14 07:19:47;;;;;;;15.53;8.77;;;;;;;0.63;100.00;60872.22;5115222;28;20432;-76
2021/12/14 07:22:38;;;;;;;17.37;9.30;;;;;;;0.69;100.00;60878.59;5115174;28;20517;-77
2021/12/14 07:25:08;;;;;;;16.90;9.73;;;;;;;0.71;100.00;60881.25;5115679;28;20818;-76
2021/12/14 07:27:42;;;;;;;16.17;10.07;;;;;;;0.77;100.00;60887.59;5097005;28;20472;-77
2021/12/14 07:30:16;;;;;;;20.60;10.27;;;;;;;0.07;100.00;60823.44;5115274;28;20433;-76
2021/12/14 07:32:51;;;;;;;15.93;10.23;;;;;;;0.74;100.00;60884.44;5096941;28;20883;-75
2021/12/14 07:35:27;;;;;;;16.30;10.33;;;;;;;0.82;100.00;60892.91;5096763;28;20491;-75
2021/12/14 07:38:02;;;;;;;18.63;10.00;;;;;;;0.77;100.00;60890.13;5115052;28;20882;-77
2021/12/14 07:40:36;;;;;;;17.70;9.80;;;;;;;0.84;100.00;60895.03;5115088;28;20444;-76
2021/12/14 07:43:09;;;;;;;16.13;9.27;;;;;;;0.89;100.00;60899.28;5115141;28;20437;-76
2021/12/14 07:45:39;;;;;;;16.47;9.80;;;;;;;0.90;100.00;60903.38;5114803;28;20459;-78
2021/12/14 07:48:06;;;;;;;17.73;10.37;;;;;;;0.81;100.00;60891.84;5114656;28;20480;-76
2021/12/14 07:50:56;;;;;;;21.67;9.83;;;;;;;0.96;100.00;60906.69;5115102;28;20437;-76
2021/12/14 07:53:40;;;;;;;18.90;10.57;;;;;;;0.94;100.00;60904.56;5113480;28;20511;-76
2021/12/14 07:56:08;;;;;;;18.93;10.23;;;;;;;0.86;100.00;60901.63;5115325;28;20532;-77
2021/12/14 07:58:39;;;;;;;20.27;11.03;;;;;;;0.88;100.00;60903.22;5114468;28;20449;-75
2021/12/14 08:01:08;;;;;;;18.90;9.93;;;;;;;0.88;100.00;60898.22;5115084;28;20442;-79
2021/12/14 08:03:37;;;;;;;15.27;9.43;;;;;;;0.91;100.00;60901.41;5096165;28;20453;-78
2021/12/14 08:06:14;;;;;;;18.73;10.50;;;;;;;-0.27;100.00;60777.94;5115123;28;20444;-77
2021/12/14 08:08:45;;;;;;;17.80;9.63;;;;;;;0.90;100.00;60900.34;5115764;28;20443;-76
2021/12/14 08:14:05;;;;;;;20.23;10.90;;;;;;;0.97;100.00;60907.75;5098266;28;20437;-76
2021/12/14 08:16:41;;;;;;;20.50;11.50;;;;;;;-0.13;100.00;60797.25;5096608;28;20492;-76
2021/12/14 08:19:13;;;;;;;17.40;11.03;;;;;;;-0.32;100.00;60772.13;5116418;28;20445;-76
2021/12/14 08:24:52;;;;;;;21.17;11.67;;;;;;;-0.52;100.00;60758.97;5114936;28;20498;-77
2021/12/14 08:27:21;;;;;;;20.00;12.00;;;;;;;1.12;100.00;60928.69;5115361;28;20880;-77
2021/12/14 08:29:53;;;;;;;23.50;12.80;;;;;;;1.12;100.00;60923.66;5115406;28;20532;-77
2021/12/14 08:32:25;;;;;;;21.57;11.03;;;;;;;1.16;100.00;60928.44;5096659;28;20445;-77
2021/12/14 08:34:57;;;;;;;21.80;10.97;;;;;;;-0.09;100.00;60793.97;5115721;28;20488;-77
2021/12/14 08:37:36;;;;;;;19.33;11.20;;;;;;;0.82;100.00;60892.91;5115539;28;20437;-75
2021/12/14 08:40:10;;;;;;;20.53;11.40;;;;;;;1.04;100.00;60915.72;5114908;28;20428;-78
2021/12/14 08:42:46;;;;;;;20.00;11.80;;;;;;;-0.33;100.00;60776.06;5114911;28;20422;-77
2021/12/14 08:45:28;;;;;;;21.90;12.90;;;;;;;-0.01;100.00;60805.47;5115665;28;20468;-79
2021/12/14 08:48:10;;;;;;;22.30;12.30;;;;;;;1.05;100.00;60918.75;5115015;28;20499;-79
2021/12/14 08:50:43;;;;;;;21.07;12.50;;;;;;;1.12;100.00;60921.16;5116073;28;20465;-76
2021/12/14 08:53:15;;;;;;;23.77;12.77;;;;;;;-0.10;100.00;60798.44;5117504;28;20646;-78
2021/12/14 08:55:52;;;;;;;21.70;11.67;;;;;;;0.22;100.00;60824.31;5116198;28;21047;-78
2021/12/14 08:58:30;;;;;;;22.73;12.30;;;;;;;1.38;100.00;60956.25;5115626;28;20774;-77
2021/12/14 09:01:14;;;;;;;21.00;12.97;;;;;;;-0.18;100.00;60786.94;5113699;28;20435;-79
2021/12/14 09:03:50;;;;;;;25.67;13.73;;;;;;;0.53;100.00;60864.13;5113436;28;21003;-77
2021/12/14 09:06:21;;;;;;;24.53;13.67;;;;;;;0.23;100.00;60835.38;5113517;28;20447;-76
2021/12/14 09:08:53;;;;;;;24.80;13.03;;;;;;;1.41;100.00;60959.47;5114221;28;20441;-77
2021/12/14 09:11:26;;;;;;;23.43;12.77;;;;;;;1.48;100.00;60961.84;5114460;28;20444;-76
2021/12/14 09:14:01;;;;;;;22.83;13.17;;;;;;;1.35;100.00;60948.06;5114471;28;20486;-75
2021/12/14 09:16:36;;;;;;;27.00;13.90;;;;;;;1.62;100.00;60979.22;5114677;28;21020;-76
2021/12/14 09:19:13;;;;;;;26.73;14.03;;;;;;;0.32;100.00;60846.91;5113336;28;20523;-75
2021/12/14 09:21:51;;;;;;;23.23;12.70;;;;;;;1.55;100.00;60966.78;5112916;28;20441;-77
2021/12/14 09:24:39;;;;;;;22.73;13.63;;;;;;;1.73;100.00;60993.41;5112624;28;20425;-78
2021/12/14 09:27:09;;;;;;;24.70;13.60;;;;;;;1.61;100.00;60980.69;5112901;28;20436;-80
2021/12/14 09:29:38;;;;;;;27.73;15.63;;;;;;;1.77;100.00;60992.63;5120127;28;20854;-76
2021/12/14 09:32:09;;;;;;;22.97;14.00;;;;;;;1.79;100.00;60994.75;5113539;28;20421;-77
2021/12/14 09:34:40;;;;;;;27.70;15.70;;;;;;;1.86;100.00;61002.19;5112645;28;20510;-76
2021/12/14 09:37:10;;;;;;;32.23;17.13;;;;;;;1.94;100.00;60995.06;5111658;28;20484;-77
2021/12/14 09:39:44;;;;;;;31.90;16.80;;;;;;;1.56;100.00;60967.84;5111152;28;20524;-77
2021/12/14 09:42:16;;;;;;;24.57;14.17;;;;;;;1.81;100.00;60996.88;5111452;28;20461;-78
2021/12/14 09:44:46;;;;;;;24.40;15.27;;;;;;;1.77;100.00;60997.66;5112565;28;20502;-76
2021/12/14 09:47:19;;;;;;;23.20;13.90;;;;;;;1.90;100.00;61005.88;5094213;28;21037;-76
2021/12/14 09:49:50;;;;;;;24.37;14.53;;;;;;;1.90;100.00;61011.44;5112479;28;20477;-77
2021/12/14 09:52:21;;;;;;;27.13;14.63;;;;;;;0.80;100.00;60895.28;5116226;28;20432;-76
2021/12/14 09:55:13;;;;;;;22.00;12.70;;;;;;;2.04;100.00;61021.28;5137113;28;20470;-77
2021/12/14 09:57:48;;;;;;;21.60;13.90;;;;;;;2.00;100.00;61017.03;5121544;28;20456;-76
2021/12/14 10:00:24;;;;;;;25.50;15.03;;;;;;;2.10;100.00;61030.16;5113971;28;20473;-78
2021/12/14 10:02:56;;;;;;;24.83;14.33;;;;;;;1.61;100.00;60980.69;5113536;28;20439;-79
2021/12/14 10:05:29;;;;;;;23.90;14.60;;;;;;;2.28;100.00;61046.78;5111885;28;20460;-76
2021/12/14 10:08:14;;;;;;;21.27;13.53;;;;;;;1.60;100.00;60964.56;5113210;28;20935;-76
2021/12/14 10:10:46;;;;;;;22.67;14.37;;;;;;;2.16;100.00;61036.53;5113525;28;20981;-75
2021/12/14 10:13:14;;;;;;;28.60;14.53;;;;;;;1.34;100.00;60949.50;5114971;28;20460;-77
2021/12/14 10:15:47;;;;;;;26.70;14.20;;;;;;;1.40;100.00;60953.38;5113029;28;20476;-78
2021/12/14 10:18:20;;;;;;;26.67;15.03;;;;;;;2.14;100.00;61031.38;5112735;28;20520;-79
2021/12/14 10:21:05;;;;;;;29.00;14.90;;;;;;;2.17;100.00;61032.59;5112645;28;20452;-78
2021/12/14 10:23:37;;;;;;;23.63;13.53;;;;;;;1.10;100.00;60921.53;5094073;28;20528;-76
2021/12/14 10:26:07;;;;;;;27.23;14.50;;;;;;;2.07;100.00;61026.47;5113361;28;20444;-76
2021/12/14 10:28:41;;;;;;;25.67;14.70;;;;;;;2.26;100.00;61047.16;5113367;28;20429;-74
2021/12/14 10:31:14;;;;;;;27.00;14.57;;;;;;;2.24;100.00;61042.00;5112447;28;20958;-77
2021/12/14 10:33:43;;;;;;;23.90;13.30;;;;;;;2.15;100.00;61032.97;5094076;28;20460;-77
2021/12/14 10:36:31;;;;;;;23.60;14.10;;;;;;;1.62;100.00;60976.72;5113988;28;20491;-77
2021/12/14 10:39:23;;;;;;;24.50;14.30;;;;;;;0.34;100.00;60846.50;5117599;28;20445;-76
2021/12/14 10:44:50;;;;;;;25.27;13.63;;;;;;;1.83;100.00;60999.00;5116647;28;20436;-80
2021/12/14 10:47:21;;;;;;;25.63;14.97;;;;;;;1.64;100.00;60981.88;5115947;28;20449;-77
2021/12/14 10:49:52;;;;;;;24.90;13.70;;;;;;;0.48;100.00;60861.88;5116567;28;20489;-77
2021/12/14 10:52:24;;;;;;;25.20;14.47;;;;;;;1.75;100.00;60989.97;5118182;28;20445;-76
2021/12/14 10:54:54;;;;;;;23.63;14.73;;;;;;;0.50;100.00;60858.47;5119862;28;20421;-79
2021/12/14 10:57:28;;;;;;;25.63;16.07;;;;;;;1.79;100.00;60997.28;5116315;28;20484;-77
2021/12/14 10:59:58;;;;;;;33.13;17.67;;;;;;;1.86;100.00;61002.19;5121555;28;20836;-76
2021/12/14 11:02:39;;;;;;;28.67;15.63;;;;;;;1.87;100.00;61003.25;5116271;28;20441;-78
2021/12/14 11:05:16;;;;;;;30.43;16.43;;;;;;;1.59;100.00;60973.53;5115536;28;20815;-75
2021/12/14 11:07:47;;;;;;;30.53;17.53;;;;;;;1.91;100.00;61007.50;5115611;28;20966;-77
2021/12/14 11:10:22;;;;;;;26.10;15.73;;;;;;;1.82;100.00;60997.94;5115694;28;20483;-77
2021/12/14 11:13:00;;;;;;;28.63;16.00;;;;;;;2.03;100.00;61020.25;5097580;28;20443;-76
2021/12/14 11:15:45;;;;;;;28.17;15.73;;;;;;;1.97;100.00;61013.88;5115637;28;20432;-76
2021/12/14 11:21:12;;;;;;;27.17;15.90;;;;;;;1.92;100.00;61010.53;5115161;28;20443;-77
2021/12/14 11:23:42;;;;;;;28.60;15.67;;;;;;;1.64;100.00;60983.84;5115477;28;20527;-78
2021/12/14 11:26:15;;;;;;;26.20;15.87;;;;;;;1.92;100.00;61005.50;5115893;28;20435;-76
2021/12/14 11:28:52;;;;;;;25.13;14.53;;;;;;;2.07;100.00;61023.94;5117079;28;20485;-79
2021/12/14 11:31:27;;;;;;;23.23;14.17;;;;;;;1.75;100.00;60990.53;5115278;28;20505;-77
2021/12/14 11:33:58;;;;;;;23.93;13.67;;;;;;;2.10;100.00;61027.13;5115225;28;20982;-76
2021/12/14 11:36:32;;;;;;;27.47;13.57;;;;;;;2.02;100.00;61019.16;5115280;28;20469;-77
2021/12/14 11:39:09;;;;;;;26.63;13.87;;;;;;;0.78;100.00;60888.69;5115284;28;20461;-75
2021/12/14 11:41:48;;;;;;;26.27;15.00;;;;;;;1.90;100.00;61005.88;5114725;28;20490;-77
2021/12/14 11:44:31;;;;;;;25.43;16.03;;;;;;;0.96;100.00;60907.22;5114926;28;20954;-80
2021/12/14 11:47:06;;;;;;;29.57;16.43;;;;;;;1.93;100.00;61009.63;5125066;28;20448;-77
2021/12/14 11:49:48;;;;;;;29.13;15.47;;;;;;;1.98;100.00;61016.91;5115041;28;20475;-80
2021/12/14 11:52:38;;;;;;;29.83;17.17;;;;;;;1.83;100.00;61004.03;5114996;28;20436;-77
2021/12/14 11:55:32;;;;;;;26.97;16.57;;;;;;;1.55;100.00;60974.31;5115051;28;20939;-78
2021/12/14 11:58:12;;;;;;;32.00;18.57;;;;;;;2.06;100.00;61028.44;5093083;28;20904;-76
2021/12/14 12:00:44;;;;;;;30.77;16.37;;;;;;;2.09;100.00;61029.13;5115145;28;20429;-78
2021/12/14 12:03:40;;;;;;;29.10;16.50;;;;;;;2.10;100.00;61030.16;5115214;28;20441;-78
2021/12/14 12:06:15;;;;;;;33.73;18.07;;;;;;;2.03;100.00;61019.69;5114479;28;20440;-78
2021/12/14 12:11:41;;;;;;;32.43;18.53;;;;;;;2.00;100.00;61019.56;5114542;28;20423;-78
2021/12/14 12:14:21;;;;;;;33.27;18.03;;;;;;;2.01;100.00;61013.09;5114236;28;20437;-77
2021/12/14 12:16:52;;;;;;;34.37;18.83;;;;;;;2.06;100.00;61023.41;5096276;28;20831;-78
2021/12/14 12:19:23;;;;;;;28.03;16.10;;;;;;;1.13;100.00;60919.72;5114327;28;20429;-76
2021/12/14 12:21:54;;;;;;;33.60;17.57;;;;;;;1.03;100.00;60914.13;5113589;28;20445;-81
2021/12/14 12:24:41;;;;;;;29.87;16.43;;;;;;;1.71;100.00;60986.28;5114126;28;20457;-79
2021/12/14 12:27:35;;;;;;;34.30;18.47;;;;;;;1.94;100.00;61005.66;5114135;28;20931;-79
2021/12/14 12:30:32;;;;;;;29.67;16.67;;;;;;;2.15;100.00;61032.97;5114260;28;20437;-77
2021/12/14 12:33:11;;;;;;;28.33;15.37;;;;;;;1.88;100.00;61004.31;5095825;28;20449;-77
2021/12/14 12:35:54;;;;;;;24.83;13.63;;;;;;;1.17;100.00;60934.00;5113960;28;20878;-79
2021/12/14 12:41:28;;;;;;;24.97;13.30;;;;;;;2.10;100.00;61027.66;5114063;28;20444;-78
2021/12/14 12:44:05;;;;;;;28.07;15.30;;;;;;;0.96;100.00;60911.72;5114176;28;20428;-78